createdAt,value
2023-01-29T00:00:16.211Z,7.13
2023-01-29T00:05:27.142Z,8.65
2023-01-29T00:07:57.579Z,7.72
2023-01-29T00:10:25.560Z,7.43
2023-01-29T00:12:55.113Z,8.70
2023-01-29T00:15:22.257Z,11.55
2023-01-29T00:17:49.394Z,8.43
2023-01-29T00:20:21.975Z,8.48
2023-01-29T00:22:51.813Z,7.78
2023-01-29T00:25:21.220Z,7.72
2023-01-29T00:27:50.788Z,8.23
2023-01-29T00:30:24.534Z,8.40
2023-01-29T00:32:58.831Z,8.35
2023-01-29T00:35:26.064Z,7.88
2023-01-29T00:37:57.890Z,8.00
2023-01-29T00:40:52.146Z,7.82
2023-01-29T00:43:38.142Z,8.25
2023-01-29T00:46:06.646Z,7.57
2023-01-29T00:48:34.457Z,7.90
2023-01-29T00:51:02.954Z,6.80
2023-01-29T00:53:32.192Z,7.18
2023-01-29T00:55:59.473Z,7.80
2023-01-29T00:58:28.376Z,7.03
2023-01-29T01:00:56.158Z,6.93
2023-01-29T01:03:23.206Z,7.43
2023-01-29T01:08:35.580Z,8.07
2023-01-29T01:11:06.763Z,7.10
2023-01-29T01:13:34.958Z,7.68
2023-01-29T01:16:01.913Z,7.13
2023-01-29T01:18:33.995Z,8.23
2023-01-29T01:21:01.025Z,7.40
2023-01-29T01:23:27.894Z,6.07
2023-01-29T01:25:57.873Z,7.28
2023-01-29T01:28:24.983Z,5.65
2023-01-29T01:30:51.966Z,6.85
2023-01-29T01:33:41.597Z,7.30
2023-01-29T01:36:09.960Z,7.40
2023-01-29T01:38:44.739Z,7.20
2023-01-29T01:41:14.915Z,7.90
2023-01-29T01:44:03.254Z,7.40
2023-01-29T01:46:33.913Z,7.07
2023-01-29T01:49:19.027Z,6.97
2023-01-29T01:51:52.624Z,6.78
2023-01-29T01:54:24.946Z,6.40
2023-01-29T01:57:09.490Z,6.90
2023-01-29T01:59:39.093Z,6.22
2023-01-29T02:02:27.528Z,7.82
2023-01-29T02:05:17.262Z,7.35
2023-01-29T02:08:06.012Z,6.85
2023-01-29T02:10:42.520Z,7.38
2023-01-29T02:13:09.833Z,7.15
2023-01-29T02:15:37.551Z,6.35
2023-01-29T02:18:04.580Z,7.15
2023-01-29T02:20:33.998Z,7.13
2023-01-29T02:23:03.875Z,7.18
2023-01-29T02:28:25.740Z,7.07
2023-01-29T02:31:23.739Z,7.75
2023-01-29T02:34:06.590Z,6.90
2023-01-29T02:36:36.421Z,7.85
2023-01-29T02:39:28.321Z,6.95
2023-01-29T02:42:02.967Z,6.97
2023-01-29T02:45:00.552Z,6.88
2023-01-29T02:47:58.725Z,7.65
2023-01-29T02:51:03.672Z,7.90
2023-01-29T02:53:40.703Z,7.53
2023-01-29T02:56:14.694Z,7.32
2023-01-29T02:59:17.000Z,8.52
2023-01-29T03:01:53.323Z,7.90
2023-01-29T03:04:26.409Z,7.60
2023-01-29T03:07:02.636Z,6.60
2023-01-29T03:09:44.623Z,7.43
2023-01-29T03:12:29.159Z,6.78
2023-01-29T03:15:16.688Z,6.60
2023-01-29T03:18:14.814Z,6.85
2023-01-29T03:20:50.095Z,7.00
2023-01-29T03:23:45.139Z,8.55
2023-01-29T03:26:31.967Z,7.90
2023-01-29T03:29:21.913Z,7.40
2023-01-29T03:32:09.000Z,8.25
2023-01-29T03:34:43.735Z,7.45
2023-01-29T03:37:32.237Z,7.32
2023-01-29T03:39:59.299Z,7.35
2023-01-29T03:43:08.579Z,7.97
2023-01-29T03:48:29.162Z,7.85
2023-01-29T03:51:10.466Z,7.97
2023-01-29T03:53:48.324Z,8.05
2023-01-29T03:56:39.405Z,8.55
2023-01-29T04:02:15.929Z,7.93
2023-01-29T04:04:49.057Z,7.25
2023-01-29T04:07:28.268Z,8.43
2023-01-29T04:10:00.185Z,7.45
2023-01-29T04:12:36.375Z,7.32
2023-01-29T04:15:12.592Z,7.97
2023-01-29T04:20:13.671Z,8.85
2023-01-29T04:22:44.967Z,7.80
2023-01-29T04:25:19.132Z,9.27
2023-01-29T04:28:12.088Z,7.88
2023-01-29T04:31:00.609Z,8.02
2023-01-29T04:34:10.972Z,8.82
2023-01-29T04:36:55.876Z,8.00
2023-01-29T04:39:34.650Z,8.70
2023-01-29T04:42:34.297Z,8.77
2023-01-29T04:45:42.124Z,6.95
2023-01-29T04:48:37.769Z,7.93
2023-01-29T04:51:19.000Z,8.35
2023-01-29T04:54:13.051Z,7.85
2023-01-29T04:57:27.010Z,7.75
2023-01-29T05:00:02.754Z,7.75
2023-01-29T05:02:36.658Z,8.13
2023-01-29T05:05:06.286Z,7.53
2023-01-29T05:07:36.241Z,7.78
2023-01-29T05:10:09.146Z,6.57
2023-01-29T05:12:41.329Z,7.47
2023-01-29T05:15:18.668Z,7.35
2023-01-29T05:17:48.973Z,9.75
2023-01-29T05:20:17.738Z,7.65
2023-01-29T05:22:46.764Z,7.10
2023-01-29T05:25:26.596Z,7.90
2023-01-29T05:28:14.159Z,8.45
2023-01-29T05:30:40.872Z,8.45
2023-01-29T05:33:23.873Z,8.30
2023-01-29T05:35:51.285Z,7.65
2023-01-29T05:38:19.600Z,7.10
2023-01-29T05:40:46.616Z,7.63
2023-01-29T05:43:27.379Z,8.02
2023-01-29T05:45:58.056Z,7.25
2023-01-29T05:48:27.699Z,6.93
2023-01-29T05:50:59.736Z,8.13
2023-01-29T05:53:26.833Z,7.35
2023-01-29T05:55:59.212Z,8.18
2023-01-29T05:58:26.225Z,8.50
2023-01-29T06:03:33.526Z,8.85
2023-01-29T06:06:02.046Z,8.20
2023-01-29T06:08:28.635Z,8.25
2023-01-29T06:10:55.303Z,9.07
2023-01-29T06:13:23.632Z,8.32
2023-01-29T06:15:50.579Z,7.60
2023-01-29T06:18:17.300Z,7.95
2023-01-29T06:23:10.469Z,8.05
2023-01-29T06:25:37.099Z,8.38
2023-01-29T06:28:05.861Z,8.07
2023-01-29T06:30:34.805Z,9.02
2023-01-29T06:33:02.010Z,8.20
2023-01-29T06:35:29.936Z,8.70
2023-01-29T06:40:23.545Z,8.18
2023-01-29T06:45:16.961Z,8.95
2023-01-29T06:47:43.641Z,8.73
2023-01-29T06:50:11.231Z,8.68
2023-01-29T06:52:38.058Z,8.80
2023-01-29T06:55:05.161Z,9.13
2023-01-29T06:57:31.858Z,8.40
2023-01-29T06:59:58.644Z,9.18
2023-01-29T07:02:25.309Z,9.45
2023-01-29T07:07:18.622Z,8.63
2023-01-29T07:12:11.991Z,9.45
2023-01-29T07:14:38.676Z,8.88
2023-01-29T07:17:07.764Z,8.77
2023-01-29T07:22:03.343Z,9.45
2023-01-29T07:29:23.426Z,9.00
2023-01-29T07:34:24.112Z,9.02
2023-01-29T07:36:53.796Z,9.18
2023-01-29T07:39:22.831Z,10.15
2023-01-29T07:44:16.634Z,9.10
2023-01-29T07:46:43.752Z,8.20
2023-01-29T07:49:11.075Z,7.65
2023-01-29T07:51:37.739Z,8.23
2023-01-29T07:54:06.878Z,8.82
2023-01-29T07:56:33.839Z,8.93
2023-01-29T07:59:00.775Z,8.52
2023-01-29T08:01:27.641Z,8.50
2023-01-29T08:06:23.556Z,10.05
2023-01-29T08:08:50.658Z,10.13
2023-01-29T08:11:17.346Z,9.75
2023-01-29T08:13:44.145Z,8.23
2023-01-29T08:16:10.734Z,9.27
2023-01-29T08:18:38.178Z,9.30
2023-01-29T08:21:04.879Z,8.52
2023-01-29T08:23:31.738Z,8.38
2023-01-29T08:25:58.428Z,9.35
2023-01-29T08:28:25.214Z,9.15
2023-01-29T08:30:52.003Z,9.68
2023-01-29T08:33:26.346Z,9.05
2023-01-29T08:35:53.602Z,9.52
2023-01-29T08:38:20.708Z,9.95
2023-01-29T08:40:47.311Z,9.85
2023-01-29T08:43:14.428Z,11.57
2023-01-29T08:45:42.974Z,10.63
2023-01-29T08:48:10.520Z,10.02
2023-01-29T08:50:38.010Z,10.43
2023-01-29T08:53:09.485Z,9.68
2023-01-29T08:55:40.389Z,9.90
2023-01-29T08:58:10.141Z,10.20
2023-01-29T09:00:37.042Z,10.57
2023-01-29T09:03:04.135Z,10.85
2023-01-29T09:05:31.049Z,10.52
2023-01-29T09:10:25.072Z,11.38
2023-01-29T09:12:51.864Z,9.85
2023-01-29T09:15:18.889Z,10.43
2023-01-29T09:17:51.783Z,9.07
2023-01-29T09:20:19.587Z,9.57
2023-01-29T09:22:47.225Z,9.70
2023-01-29T09:25:14.472Z,10.05
2023-01-29T09:30:08.931Z,10.43
2023-01-29T09:35:23.802Z,10.68
2023-01-29T09:37:51.602Z,9.68
2023-01-29T09:40:26.921Z,10.02
2023-01-29T09:43:09.517Z,9.25
2023-01-29T09:45:38.981Z,9.15
2023-01-29T09:48:14.849Z,9.63
2023-01-29T09:50:46.603Z,8.93
2023-01-29T09:53:42.353Z,9.18
2023-01-29T09:58:43.402Z,10.50
2023-01-29T10:01:22.567Z,10.27
2023-01-29T10:03:55.359Z,8.77
2023-01-29T10:06:42.257Z,9.45
2023-01-29T10:09:36.311Z,8.93
2023-01-29T10:12:31.174Z,9.23
2023-01-29T10:15:19.309Z,9.85
2023-01-29T10:18:20.061Z,8.55
2023-01-29T10:20:56.490Z,9.23
2023-01-29T10:23:34.395Z,8.65
2023-01-29T10:28:43.328Z,10.25
2023-01-29T10:31:21.660Z,9.50
2023-01-29T10:34:02.470Z,9.35
2023-01-29T10:36:45.343Z,9.35
2023-01-29T10:39:23.457Z,9.73
2023-01-29T10:44:29.330Z,8.77
2023-01-29T10:47:30.564Z,9.02
2023-01-29T10:50:06.817Z,8.85
2023-01-29T10:52:54.181Z,9.60
2023-01-29T10:55:30.643Z,9.02
2023-01-29T10:58:27.892Z,8.85
2023-01-29T11:00:54.669Z,9.60
2023-01-29T11:03:28.863Z,10.00
2023-01-29T11:06:17.339Z,9.80
2023-01-29T11:08:57.917Z,9.27
2023-01-29T11:11:46.062Z,9.23
2023-01-29T11:14:20.882Z,9.43
2023-01-29T11:16:49.237Z,9.95
2023-01-29T11:19:16.556Z,10.93
2023-01-29T11:22:01.869Z,10.88
2023-01-29T11:24:29.008Z,10.73
2023-01-29T11:26:58.772Z,10.55
2023-01-29T11:29:38.325Z,10.02
2023-01-29T11:32:13.806Z,10.40
2023-01-29T11:35:05.288Z,10.85
2023-01-29T11:37:37.485Z,9.88
2023-01-29T11:40:21.486Z,9.00
2023-01-29T11:42:49.100Z,10.13
2023-01-29T11:45:33.874Z,9.80
2023-01-29T11:50:30.707Z,11.77
2023-01-29T11:53:00.028Z,10.27
2023-01-29T11:55:40.956Z,10.75
2023-01-29T11:58:29.195Z,10.75
2023-01-29T12:00:58.475Z,11.00
2023-01-29T12:03:36.909Z,11.18
2023-01-29T12:06:13.094Z,10.98
2023-01-29T12:08:42.512Z,11.60
2023-01-29T12:11:13.668Z,15.90
2023-01-29T12:13:45.763Z,11.25
2023-01-29T12:16:18.466Z,11.82
2023-01-29T12:18:53.924Z,10.85
2023-01-29T12:21:31.448Z,11.73
2023-01-29T12:24:04.316Z,11.75
2023-01-29T12:26:35.409Z,11.00
2023-01-29T12:29:48.998Z,11.63
2023-01-29T12:32:27.807Z,11.30
2023-01-29T12:34:57.493Z,11.63
2023-01-29T12:37:39.285Z,11.23
2023-01-29T12:40:18.254Z,11.02
2023-01-29T12:42:52.639Z,10.57
2023-01-29T12:45:22.773Z,11.20
2023-01-29T12:47:54.732Z,11.68
2023-01-29T12:50:30.565Z,11.95
2023-01-29T12:53:39.582Z,12.25
2023-01-29T12:56:13.155Z,11.88
2023-01-29T12:58:52.831Z,12.15
2023-01-29T13:01:44.815Z,11.55
2023-01-29T13:04:43.723Z,12.27
2023-01-29T13:10:10.335Z,12.05
2023-01-29T13:12:40.253Z,11.88
2023-01-29T13:15:21.819Z,12.30
2023-01-29T13:17:58.492Z,11.82
2023-01-29T13:20:35.682Z,12.05
2023-01-29T13:23:15.539Z,12.65
2023-01-29T13:25:45.186Z,11.60
2023-01-29T13:28:26.491Z,12.95
2023-01-29T13:31:21.451Z,12.30
2023-01-29T13:34:14.701Z,12.02
2023-01-29T13:36:49.028Z,10.52
2023-01-29T13:39:22.113Z,11.25
2023-01-29T13:41:52.437Z,11.43
2023-01-29T13:44:25.674Z,10.75
2023-01-29T13:47:20.451Z,11.18
2023-01-29T13:49:56.628Z,10.57
2023-01-29T13:52:33.687Z,10.60
2023-01-29T13:55:26.338Z,9.60
2023-01-29T13:57:58.768Z,11.23
2023-01-29T14:00:35.907Z,11.45
2023-01-29T14:03:08.620Z,10.98
2023-01-29T14:05:58.592Z,11.43
2023-01-29T14:08:34.568Z,11.55
2023-01-29T14:11:13.603Z,9.57
2023-01-29T14:13:44.630Z,11.88
2023-01-29T14:21:37.824Z,9.98
2023-01-29T14:24:32.214Z,10.98
2023-01-29T14:29:41.946Z,10.23
2023-01-29T14:32:20.773Z,11.23
2023-01-29T14:34:47.883Z,10.70
2023-01-29T14:37:14.905Z,9.60
2023-01-29T14:42:53.600Z,9.63
2023-01-29T14:45:33.358Z,9.80
2023-01-29T14:50:41.989Z,9.68
2023-01-29T14:53:50.953Z,10.95
2023-01-29T14:56:33.741Z,10.02
2023-01-29T14:59:16.294Z,9.88
2023-01-29T15:04:54.064Z,9.45
2023-01-29T15:07:43.182Z,8.50
2023-01-29T15:10:23.489Z,11.35
2023-01-29T15:13:08.513Z,8.88
2023-01-29T15:15:49.685Z,9.82
2023-01-29T15:18:26.793Z,10.10
2023-01-29T15:23:42.170Z,9.07
2023-01-29T15:26:23.507Z,9.57
2023-01-29T15:29:04.629Z,9.18
2023-01-29T15:31:36.939Z,10.18
2023-01-29T15:34:07.690Z,8.75
2023-01-29T15:36:37.499Z,9.70
2023-01-29T15:39:19.693Z,10.45
2023-01-29T15:41:47.326Z,9.85
2023-01-29T15:44:23.403Z,10.35
2023-01-29T15:47:00.268Z,10.45
2023-01-29T15:49:35.676Z,10.52
2023-01-29T15:52:26.770Z,9.68
2023-01-29T15:55:09.199Z,9.40
2023-01-29T15:57:44.053Z,9.80
2023-01-29T16:00:28.739Z,10.23
2023-01-29T16:03:05.340Z,10.23
2023-01-29T16:05:37.649Z,9.35
2023-01-29T16:08:13.135Z,12.05
2023-01-29T16:10:45.760Z,10.38
2023-01-29T16:13:22.275Z,10.15
2023-01-29T16:16:19.131Z,10.07
2023-01-29T16:19:01.088Z,11.02
2023-01-29T16:21:38.448Z,10.80
2023-01-29T16:24:19.905Z,11.30
2023-01-29T16:26:53.522Z,11.98
2023-01-29T16:29:30.272Z,9.95
2023-01-29T16:32:06.071Z,11.02
2023-01-29T16:34:36.280Z,11.57
2023-01-29T16:39:50.278Z,12.13
2023-01-29T16:42:24.818Z,13.93
2023-01-29T16:45:03.742Z,14.00
2023-01-29T17:00:37.003Z,13.35
2023-01-29T17:03:19.912Z,12.90
2023-01-29T17:05:47.748Z,12.50
2023-01-29T17:08:29.564Z,13.50
2023-01-29T17:11:02.110Z,14.60
2023-01-29T17:13:38.507Z,13.90
2023-01-29T17:16:37.191Z,13.07
2023-01-29T17:19:18.540Z,12.35
2023-01-29T17:21:45.810Z,12.95
2023-01-29T17:24:12.661Z,12.88
2023-01-29T17:26:41.143Z,12.90
2023-01-29T17:29:17.275Z,13.73
2023-01-29T17:31:44.148Z,12.65
2023-01-29T17:36:44.081Z,13.40
2023-01-29T17:39:17.514Z,13.18
2023-01-29T17:41:47.594Z,13.02
2023-01-29T17:44:17.607Z,12.43
2023-01-29T17:46:44.669Z,13.50
2023-01-29T17:49:27.991Z,13.82
2023-01-29T17:51:57.158Z,13.77
2023-01-29T17:54:27.266Z,12.35
2023-01-29T17:56:57.440Z,13.00
2023-01-29T17:59:28.754Z,13.27
2023-01-29T18:01:55.737Z,12.27
2023-01-29T18:04:25.806Z,12.30
2023-01-29T18:06:53.453Z,12.73
2023-01-29T18:11:49.519Z,13.35
2023-01-29T18:14:18.790Z,14.18
2023-01-29T18:16:46.124Z,16.73
2023-01-29T18:19:30.299Z,14.75
2023-01-29T18:21:59.712Z,13.45
2023-01-29T18:24:32.415Z,14.38
2023-01-29T18:27:02.231Z,16.33
2023-01-29T18:29:37.562Z,15.63
2023-01-29T18:32:07.855Z,16.80
2023-01-29T18:34:34.705Z,16.33
2023-01-29T18:37:01.454Z,16.17
2023-01-29T18:39:32.882Z,15.65
2023-01-29T18:42:02.765Z,16.65
2023-01-29T18:44:29.817Z,16.50
2023-01-29T18:46:59.418Z,15.18
2023-01-29T18:49:26.279Z,13.73
2023-01-29T18:51:57.996Z,14.95
2023-01-29T18:54:27.703Z,14.85
2023-01-29T18:57:13.072Z,18.88
2023-01-29T18:59:44.195Z,21.55
2023-01-29T19:02:19.327Z,19.38
2023-01-29T19:04:50.576Z,18.80
2023-01-29T19:07:20.009Z,18.17
2023-01-29T19:09:47.119Z,19.77
2023-01-29T19:12:14.113Z,19.63
2023-01-29T19:17:16.904Z,28.05
2023-01-29T19:22:10.887Z,21.98
2023-01-29T19:27:07.905Z,28.10
2023-01-29T19:32:03.010Z,20.88
2023-01-29T19:34:30.007Z,20.85
2023-01-29T19:37:02.120Z,18.88
2023-01-29T19:39:33.859Z,19.92
2023-01-29T19:42:01.469Z,21.40
2023-01-29T19:44:30.491Z,21.35
2023-01-29T19:47:03.994Z,19.63
2023-01-29T19:49:32.284Z,20.77
2023-01-29T19:52:01.262Z,21.52
2023-01-29T19:54:29.606Z,19.98
2023-01-29T19:56:56.806Z,19.13
2023-01-29T19:59:23.698Z,19.48
2023-01-29T20:01:50.952Z,20.20
2023-01-29T20:04:18.352Z,19.98
2023-01-29T20:06:50.722Z,18.30
2023-01-29T20:09:20.129Z,22.15
2023-01-29T20:11:49.530Z,19.20
2023-01-29T20:14:16.582Z,16.90
2023-01-29T20:19:20.159Z,17.13
2023-01-29T20:24:17.418Z,16.25
2023-01-29T20:29:16.006Z,17.23
2023-01-29T20:36:36.745Z,17.05
2023-01-29T20:39:06.716Z,15.77
2023-01-29T20:48:54.627Z,19.23
2023-01-29T20:51:21.627Z,18.63
2023-01-29T20:53:54.693Z,18.65
2023-01-29T20:56:23.713Z,18.63
2023-01-29T20:59:05.484Z,18.75
2023-01-29T21:01:32.533Z,17.38
2023-01-29T21:04:01.954Z,18.58
2023-01-29T21:06:29.641Z,19.85
2023-01-29T21:09:00.509Z,20.85
2023-01-29T21:11:30.242Z,19.08
2023-01-29T21:13:59.546Z,17.83
2023-01-29T21:16:27.035Z,17.90
2023-01-29T21:19:07.493Z,18.00
2023-01-29T21:21:37.412Z,17.95
2023-01-29T21:24:04.463Z,17.38
2023-01-29T21:26:33.773Z,17.67
2023-01-29T21:29:03.250Z,19.90
2023-01-29T21:31:30.241Z,18.67
2023-01-29T21:33:57.026Z,19.92
2023-01-29T21:36:23.795Z,18.67
2023-01-29T21:38:50.699Z,19.48
2023-01-29T21:41:17.599Z,18.70
2023-01-29T21:43:47.179Z,18.17
2023-01-29T21:46:14.139Z,18.45
2023-01-29T21:51:08.626Z,19.63
2023-01-29T21:53:36.727Z,18.95
2023-01-29T21:56:06.188Z,20.65
2023-01-29T21:58:32.925Z,19.67
2023-01-29T22:01:35.162Z,20.60
2023-01-29T22:03:47.476Z,20.85
2023-01-29T22:06:17.117Z,21.65
2023-01-29T22:08:44.140Z,21.17
2023-01-29T22:11:10.952Z,22.05
2023-01-29T22:13:37.897Z,19.08
2023-01-29T22:16:06.100Z,20.02
2023-01-29T22:18:33.084Z,19.63
2023-01-29T22:21:02.628Z,21.27
2023-01-29T22:23:32.732Z,21.10
2023-01-29T22:26:04.134Z,19.02
2023-01-29T22:28:30.985Z,19.60
2023-01-29T22:31:05.942Z,19.52
2023-01-29T22:33:33.534Z,20.58
2023-01-29T22:36:00.733Z,19.20
2023-01-29T22:38:30.782Z,21.42
2023-01-29T22:40:59.894Z,19.23
2023-01-29T22:43:27.111Z,19.30
2023-01-29T22:45:56.865Z,20.33
2023-01-29T22:48:23.760Z,19.63
2023-01-29T22:51:09.427Z,20.05
2023-01-29T22:53:54.840Z,17.35
2023-01-29T22:56:27.063Z,18.83
2023-01-29T22:59:00.598Z,19.15
2023-01-29T23:01:30.391Z,17.48
2023-01-29T23:03:57.631Z,20.08
2023-01-29T23:06:25.277Z,18.00
2023-01-29T23:08:52.165Z,20.10
2023-01-29T23:11:20.832Z,19.73
2023-01-29T23:13:50.199Z,19.73
2023-01-29T23:16:20.280Z,19.25
2023-01-29T23:18:51.111Z,21.67
2023-01-29T23:21:18.092Z,18.35
2023-01-29T23:23:45.279Z,19.80
2023-01-29T23:26:31.053Z,19.77
2023-01-29T23:29:04.251Z,19.55
2023-01-29T23:31:32.002Z,20.40
2023-01-29T23:33:58.891Z,20.35
2023-01-29T23:36:33.201Z,20.05
2023-01-29T23:39:00.171Z,19.05
2023-01-29T23:41:27.076Z,18.50
2023-01-29T23:43:56.248Z,17.10
2023-01-29T23:46:23.662Z,19.83
2023-01-29T23:48:50.551Z,19.52
2023-01-29T23:51:17.405Z,19.30
2023-01-29T23:53:44.424Z,18.83
2023-01-29T23:56:11.409Z,17.92
2023-01-29T23:58:38.286Z,18.02
